createdAt,value
2022-11-14T00:01:26.568Z,101450.66
2022-11-14T00:03:55.888Z,101453.28
2022-11-14T00:06:23.705Z,101446.25
2022-11-14T00:08:51.471Z,101434.91
2022-11-14T00:11:19.310Z,101441.00
2022-11-14T00:13:47.515Z,101441.84
2022-11-14T00:16:15.714Z,101434.78
2022-11-14T00:18:43.545Z,101435.69
2022-11-14T00:21:12.946Z,101436.53
2022-11-14T00:23:40.850Z,101433.88
2022-11-14T00:26:08.832Z,101447.84
2022-11-14T00:28:37.060Z,101435.56
2022-11-14T00:31:04.878Z,101427.72
2022-11-14T00:33:33.072Z,101426.78
2022-11-14T00:36:01.411Z,101431.16
2022-11-14T00:38:30.850Z,101425.88
2022-11-14T00:40:59.155Z,101432.03
2022-11-14T00:43:27.075Z,101433.75
2022-11-14T00:45:54.986Z,101439.88
2022-11-14T00:48:22.924Z,101438.13
2022-11-14T00:50:51.129Z,101427.66
2022-11-14T00:53:19.007Z,101428.41
2022-11-14T00:55:49.227Z,101428.41
2022-11-14T00:58:17.174Z,101415.31
2022-11-14T01:00:45.086Z,101419.63
2022-11-14T01:03:13.456Z,101423.16
2022-11-14T01:05:45.380Z,101423.19
2022-11-14T01:08:20.231Z,101420.56
2022-11-14T01:10:51.265Z,101422.28
2022-11-14T01:13:20.014Z,101432.81
2022-11-14T01:15:49.379Z,101424.06
2022-11-14T01:18:18.848Z,101424.06
2022-11-14T01:20:48.590Z,101414.41
2022-11-14T01:23:17.972Z,101417.94
2022-11-14T01:25:46.491Z,101412.75
2022-11-14T01:28:17.411Z,101403.19
2022-11-14T01:30:45.987Z,101412.84
2022-11-14T01:33:13.861Z,101416.38
2022-11-14T01:35:41.775Z,101420.75
2022-11-14T01:38:14.482Z,101423.38
2022-11-14T01:40:43.869Z,101412.91
2022-11-14T01:43:33.062Z,101422.56
2022-11-14T01:46:03.340Z,101418.16
2022-11-14T01:48:37.304Z,101423.41
2022-11-14T01:51:14.031Z,101428.69
2022-11-14T01:53:42.482Z,101416.38
2022-11-14T01:56:12.586Z,101399.72
2022-11-14T01:58:46.222Z,101401.47
2022-11-14T02:01:14.596Z,101400.63
2022-11-14T02:03:45.234Z,101411.16
2022-11-14T02:06:16.224Z,101403.34
2022-11-14T02:08:44.601Z,101396.31
2022-11-14T02:11:12.954Z,101391.06
2022-11-14T02:13:42.176Z,101390.19
2022-11-14T02:16:10.136Z,101384.06
2022-11-14T02:18:37.989Z,101389.31
2022-11-14T02:21:07.953Z,101381.44
2022-11-14T02:23:44.727Z,101379.66
2022-11-14T02:26:12.668Z,101370.88
2022-11-14T02:28:40.461Z,101369.13
2022-11-14T02:31:08.370Z,101360.38
2022-11-14T02:33:36.313Z,101362.97
2022-11-14T02:36:04.775Z,101358.56
2022-11-14T02:38:36.473Z,101362.06
2022-11-14T02:41:04.640Z,101367.34
2022-11-14T02:43:32.636Z,101366.47
2022-11-14T02:46:05.397Z,101363.00
2022-11-14T02:48:33.929Z,101358.59
2022-11-14T02:51:02.156Z,101361.25
2022-11-14T02:53:30.073Z,101356.88
2022-11-14T02:55:59.447Z,101356.88
2022-11-14T02:58:33.232Z,101346.44
2022-11-14T03:01:19.604Z,101337.66
2022-11-14T03:03:48.468Z,101341.06
2022-11-14T03:06:16.804Z,101335.81
2022-11-14T03:08:44.595Z,101330.53
2022-11-14T03:11:14.066Z,101335.84
2022-11-14T03:13:41.976Z,101311.34
2022-11-14T03:16:12.053Z,101322.63
2022-11-14T03:18:40.187Z,101321.78
2022-11-14T03:21:16.551Z,101317.38
2022-11-14T03:23:44.799Z,101320.03
2022-11-14T03:26:18.076Z,101321.78
2022-11-14T03:28:46.045Z,101332.25
2022-11-14T03:31:15.657Z,101330.59
2022-11-14T03:33:43.589Z,101327.03
2022-11-14T03:36:11.481Z,101324.50
2022-11-14T03:38:39.411Z,101333.16
2022-11-14T03:41:07.598Z,101345.38
2022-11-14T03:43:36.794Z,101340.13
2022-11-14T03:46:16.580Z,101341.00
2022-11-14T03:48:44.527Z,101340.16
2022-11-14T03:51:15.796Z,101337.53
2022-11-14T03:53:44.155Z,101334.88
2022-11-14T03:56:12.160Z,101335.75
2022-11-14T03:58:41.444Z,101335.75
2022-11-14T04:01:09.534Z,101326.13
2022-11-14T04:03:37.653Z,101320.94
2022-11-14T04:06:05.674Z,101332.31
2022-11-14T04:08:33.816Z,101334.97
2022-11-14T04:11:01.854Z,101320.16
2022-11-14T04:13:29.665Z,101323.66
2022-11-14T04:15:59.978Z,101320.13
2022-11-14T04:18:28.288Z,101305.25
2022-11-14T04:20:56.649Z,101315.81
2022-11-14T04:23:24.679Z,101319.28
2022-11-14T04:25:53.538Z,101311.44
2022-11-14T04:28:21.313Z,101304.38
2022-11-14T04:30:50.547Z,101307.03
2022-11-14T04:33:20.371Z,101302.63
2022-11-14T04:35:49.395Z,101302.63
2022-11-14T04:38:17.417Z,101292.13
2022-11-14T04:40:50.126Z,101304.34
2022-11-14T04:43:18.594Z,101309.59
2022-11-14T04:45:48.352Z,101305.16
2022-11-14T04:48:16.431Z,101299.88
2022-11-14T04:50:54.734Z,101299.00
2022-11-14T04:53:22.617Z,101291.13
2022-11-14T04:55:50.464Z,101293.81
2022-11-14T04:58:18.406Z,101285.94
2022-11-14T05:00:46.661Z,101296.44
2022-11-14T05:03:14.544Z,101290.31
2022-11-14T05:05:43.650Z,101281.53
2022-11-14T05:08:14.200Z,101271.00
2022-11-14T05:10:44.114Z,101280.59
2022-11-14T05:13:23.139Z,101278.03
2022-11-14T05:15:51.039Z,101276.22
2022-11-14T05:18:18.976Z,101262.28
2022-11-14T05:20:46.888Z,101264.03
2022-11-14T05:23:21.181Z,101262.28
2022-11-14T05:25:49.253Z,101264.06
2022-11-14T05:28:17.226Z,101263.19
2022-11-14T05:30:46.807Z,101267.56
2022-11-14T05:33:15.986Z,101264.91
2022-11-14T05:35:47.991Z,101258.91
2022-11-14T05:38:19.623Z,101267.63
2022-11-14T05:40:47.417Z,101258.88
2022-11-14T05:43:16.938Z,101265.03
2022-11-14T05:45:50.554Z,101261.53
2022-11-14T05:48:20.754Z,101258.91
2022-11-14T05:50:48.554Z,101266.78
2022-11-14T05:53:18.825Z,101256.25
2022-11-14T05:55:46.681Z,101260.66
2022-11-14T05:58:14.646Z,101257.13
2022-11-14T06:00:50.748Z,101257.13
2022-11-14T06:03:23.229Z,101265.97
2022-11-14T06:05:52.217Z,101252.84
2022-11-14T06:08:21.370Z,101255.50
2022-11-14T06:10:49.383Z,101252.84
2022-11-14T06:13:17.749Z,101264.28
2022-11-14T06:15:46.638Z,101252.88
2022-11-14T06:18:15.659Z,101265.03
2022-11-14T06:20:43.875Z,101263.28
2022-11-14T06:23:13.802Z,101255.41
2022-11-14T06:25:43.176Z,101244.94
2022-11-14T06:28:11.198Z,101245.91
2022-11-14T06:30:41.349Z,101258.09
2022-11-14T06:33:09.374Z,101265.16
2022-11-14T06:35:38.188Z,101261.69
2022-11-14T06:38:06.030Z,101259.28
2022-11-14T06:40:34.296Z,101262.81
2022-11-14T06:43:03.507Z,101261.94
2022-11-14T06:45:31.383Z,101261.94
2022-11-14T06:48:00.899Z,101259.41
2022-11-14T06:50:28.959Z,101273.41
2022-11-14T06:53:00.744Z,101267.31
2022-11-14T06:55:28.746Z,101283.00
2022-11-14T06:57:57.150Z,101279.50
2022-11-14T07:00:28.192Z,101275.13
2022-11-14T07:02:56.077Z,101270.88
2022-11-14T07:05:24.125Z,101263.03
2022-11-14T07:07:51.944Z,101278.72
2022-11-14T07:10:21.338Z,101270.00
2022-11-14T07:12:49.567Z,101268.19
2022-11-14T07:15:18.155Z,101268.19
2022-11-14T07:17:50.331Z,101259.44
2022-11-14T07:20:18.653Z,101256.06
2022-11-14T07:22:47.205Z,101270.78
2022-11-14T07:25:15.373Z,101252.41
2022-11-14T07:27:43.471Z,101249.03
2022-11-14T07:30:12.504Z,101241.16
2022-11-14T07:32:40.587Z,101247.22
2022-11-14T07:35:10.505Z,101244.63
2022-11-14T07:37:38.636Z,101249.03
2022-11-14T07:40:07.623Z,101249.03
2022-11-14T07:42:35.590Z,101247.31
2022-11-14T07:45:07.804Z,101258.66
2022-11-14T07:47:35.872Z,101256.91
2022-11-14T07:50:06.915Z,101262.16
2022-11-14T07:52:36.250Z,101259.56
2022-11-14T07:55:05.292Z,101267.41
2022-11-14T07:57:40.367Z,101268.16
2022-11-14T08:00:15.268Z,101267.38
2022-11-14T08:02:43.188Z,101263.78
2022-11-14T08:05:14.254Z,101272.47
2022-11-14T08:07:43.497Z,101265.47
2022-11-14T08:10:14.275Z,101274.16
2022-11-14T08:12:42.798Z,101269.63
2022-11-14T08:15:15.703Z,101264.50
2022-11-14T08:17:43.662Z,101273.06
2022-11-14T08:20:12.691Z,101279.00
2022-11-14T08:22:47.884Z,101268.50
2022-11-14T08:25:20.823Z,101267.59
2022-11-14T08:27:48.787Z,101270.22
2022-11-14T08:30:17.510Z,101267.59
2022-11-14T08:32:45.587Z,101270.16
2022-11-14T08:35:13.517Z,101276.38
2022-11-14T08:37:42.830Z,101281.63
2022-11-14T08:40:14.875Z,101286.84
2022-11-14T08:42:44.384Z,101278.78
2022-11-14T08:45:12.304Z,101289.16
2022-11-14T08:47:40.187Z,101297.84
2022-11-14T08:50:08.813Z,101298.88
2022-11-14T08:52:36.649Z,101317.22
2022-11-14T08:55:06.651Z,101312.81
2022-11-14T08:57:34.658Z,101320.56
2022-11-14T09:00:02.718Z,101328.22
2022-11-14T09:02:32.208Z,101335.97
2022-11-14T09:05:00.185Z,101325.41
2022-11-14T09:07:28.952Z,101330.72
2022-11-14T09:09:57.001Z,101331.34
2022-11-14T09:12:26.433Z,101324.34
2022-11-14T09:14:55.311Z,101338.31
2022-11-14T09:17:23.344Z,101334.56
2022-11-14T09:23:06.087Z,101315.63
2022-11-14T09:25:35.025Z,101334.31
2022-11-14T09:28:09.019Z,101331.50
2022-11-14T09:30:38.184Z,101323.69
2022-11-14T09:33:11.397Z,101321.72
2022-11-14T09:35:39.997Z,101316.28
2022-11-14T09:38:10.766Z,101292.75
2022-11-14T09:40:53.683Z,101245.03
2022-11-14T09:43:43.142Z,101252.53
2022-11-14T09:46:21.183Z,101239.53
2022-11-14T09:48:52.986Z,101240.72
2022-11-14T09:51:29.027Z,101250.78
2022-11-14T09:54:07.971Z,101264.78
2022-11-14T09:56:35.958Z,101266.97
2022-11-14T09:59:09.873Z,101249.75
2022-11-14T10:01:47.626Z,101233.63
2022-11-14T10:04:25.685Z,101208.81
2022-11-14T10:07:03.113Z,101188.56
2022-11-14T10:09:44.846Z,101157.16
2022-11-14T10:12:19.473Z,101150.41
2022-11-14T10:15:00.004Z,101147.53
2022-11-14T10:18:04.300Z,101141.97
2022-11-14T10:20:40.904Z,101133.03
2022-11-14T10:23:29.373Z,101105.50
2022-11-14T10:26:08.079Z,101092.22
2022-11-14T10:28:57.828Z,101026.50
2022-11-14T10:31:45.166Z,100981.84
2022-11-14T10:34:26.508Z,100927.13
2022-11-14T10:37:07.359Z,100869.03
2022-11-14T10:39:42.728Z,100881.34
2022-11-14T10:42:20.704Z,100882.38
2022-11-14T10:45:03.690Z,100921.06
2022-11-14T10:47:41.949Z,100923.09
2022-11-14T10:50:19.536Z,100934.59
2022-11-14T10:52:49.584Z,100930.25
2022-11-14T10:55:24.836Z,100944.25
2022-11-14T10:58:11.245Z,100918.09
2022-11-14T11:00:39.201Z,100901.81
2022-11-14T11:03:08.921Z,100929.78
2022-11-14T11:05:48.813Z,100934.78
2022-11-14T11:08:43.639Z,100924.00
2022-11-14T11:11:31.767Z,100924.22
2022-11-14T11:14:02.436Z,100906.94
2022-11-14T11:16:31.038Z,100871.41
2022-11-14T11:19:16.027Z,100831.47
2022-11-14T11:21:51.476Z,100787.44
2022-11-14T11:24:43.275Z,100697.75
2022-11-14T11:27:15.854Z,100662.41
2022-11-14T11:29:43.971Z,100650.25
2022-11-14T11:32:11.900Z,100666.66
2022-11-14T11:34:41.649Z,100642.00
2022-11-14T11:37:16.959Z,100674.22
2022-11-14T11:39:56.333Z,100690.09
2022-11-14T11:43:12.286Z,100668.22
2022-11-14T11:45:21.903Z,100656.34
2022-11-14T11:47:57.413Z,100653.41
2022-11-14T11:50:27.327Z,100637.53
2022-11-14T11:53:08.342Z,100613.25
2022-11-14T11:55:43.788Z,100572.63
2022-11-14T11:58:20.210Z,100534.97
2022-11-14T12:00:48.590Z,100473.31
2022-11-14T12:03:20.750Z,100431.63
2022-11-14T12:06:00.831Z,100438.16
2022-11-14T12:08:37.079Z,100413.50
2022-11-14T12:11:11.209Z,100438.63
2022-11-14T12:14:17.280Z,100445.63
2022-11-14T12:17:08.450Z,100464.66
2022-11-14T12:19:52.737Z,100472.06
2022-11-14T12:22:51.333Z,100494.31
2022-11-14T12:25:44.024Z,100510.34
2022-11-14T12:28:29.156Z,100517.56
2022-11-14T12:31:02.318Z,100475.00
2022-11-14T12:33:34.233Z,100449.00
2022-11-14T12:36:10.003Z,100453.09
2022-11-14T12:38:46.948Z,100460.63
2022-11-14T12:41:24.474Z,100469.94
2022-11-14T12:43:52.419Z,100469.34
2022-11-14T12:46:20.365Z,100480.25
2022-11-14T12:48:48.826Z,100468.97
2022-11-14T12:51:51.521Z,100456.75
2022-11-14T12:54:45.595Z,100450.09
2022-11-14T12:57:41.467Z,100419.75
2022-11-14T13:00:11.260Z,100408.44
2022-11-14T13:02:58.181Z,100394.63
2022-11-14T13:05:48.664Z,100407.94
2022-11-14T13:08:48.301Z,100421.16
2022-11-14T13:11:55.470Z,100415.84
2022-11-14T13:14:41.250Z,100425.91
2022-11-14T13:17:46.505Z,100409.53
2022-11-14T13:20:48.762Z,100405.09
2022-11-14T13:23:55.670Z,100408.13
2022-11-14T13:26:45.939Z,100412.16
2022-11-14T13:29:41.956Z,100430.31
2022-11-14T13:32:59.603Z,100447.72
2022-11-14T13:35:53.572Z,100452.13
2022-11-14T13:38:59.276Z,100464.88
2022-11-14T13:42:05.961Z,100478.66
2022-11-14T13:45:09.513Z,100474.72
2022-11-14T13:48:14.463Z,100478.91
2022-11-14T13:51:36.755Z,100483.53
2022-11-14T13:54:03.907Z,100480.84
2022-11-14T13:56:44.018Z,100488.25
2022-11-14T13:59:53.417Z,100487.47
2022-11-14T14:02:49.166Z,100500.25
2022-11-14T14:05:30.115Z,100492.19
2022-11-14T14:08:14.513Z,100491.94
2022-11-14T14:11:02.711Z,100502.59
2022-11-14T14:13:45.267Z,100509.78
2022-11-14T14:16:24.226Z,100500.06
2022-11-14T14:19:07.192Z,100497.25
2022-11-14T14:21:44.897Z,100489.94
2022-11-14T14:24:27.519Z,100479.59
2022-11-14T14:27:04.278Z,100481.63
2022-11-14T14:29:44.127Z,100462.13
2022-11-14T14:32:15.578Z,100465.88
2022-11-14T14:34:43.548Z,100451.28
2022-11-14T14:37:21.062Z,100453.94
2022-11-14T14:40:01.234Z,100465.16
2022-11-14T14:42:37.433Z,100461.34
2022-11-14T14:45:15.878Z,100444.22
2022-11-14T14:47:48.855Z,100456.59
2022-11-14T14:50:22.364Z,100454.97
2022-11-14T14:52:58.080Z,100475.53
2022-11-14T14:55:29.903Z,100480.44
2022-11-14T14:58:20.994Z,100477.47
2022-11-14T15:01:02.644Z,100462.19
2022-11-14T15:03:37.004Z,100474.69
2022-11-14T15:06:08.119Z,100464.50
2022-11-14T15:08:39.570Z,100480.25
2022-11-14T15:11:09.314Z,100478.56
2022-11-14T15:13:38.761Z,100491.75
2022-11-14T15:16:09.265Z,100478.13
2022-11-14T15:18:42.132Z,100469.34
2022-11-14T15:21:15.433Z,100480.97
2022-11-14T15:23:46.062Z,100456.22
2022-11-14T15:26:22.166Z,100442.75
2022-11-14T15:28:53.664Z,100435.59
2022-11-14T15:31:24.512Z,100419.75
2022-11-14T15:34:04.737Z,100428.34
2022-11-14T15:36:36.931Z,100419.28
2022-11-14T15:39:09.670Z,100401.16
2022-11-14T15:41:39.288Z,100385.94
2022-11-14T15:44:30.216Z,100403.41
2022-11-14T15:47:00.220Z,100403.63
2022-11-14T15:49:28.699Z,100406.97
2022-11-14T15:52:00.698Z,100421.31
2022-11-14T15:54:31.642Z,100440.81
2022-11-14T15:57:14.978Z,100423.94
2022-11-14T15:59:46.766Z,100420.31
2022-11-14T16:02:19.183Z,100419.56
2022-11-14T16:04:48.197Z,100411.72
2022-11-14T16:07:20.573Z,100424.84
2022-11-14T16:09:48.714Z,100418.09
2022-11-14T16:12:26.236Z,100436.59
2022-11-14T16:14:54.454Z,100436.63
2022-11-14T16:17:24.713Z,100439.22
2022-11-14T16:19:52.952Z,100439.22
2022-11-14T16:22:22.759Z,100435.78
2022-11-14T16:24:53.783Z,100435.88
2022-11-14T16:27:24.658Z,100441.06
2022-11-14T16:29:52.923Z,100436.69
2022-11-14T16:32:20.942Z,100435.06
2022-11-14T16:34:48.922Z,100419.22
2022-11-14T16:37:17.650Z,100414.88
2022-11-14T16:39:46.540Z,100402.38
2022-11-14T16:42:14.573Z,100404.41
2022-11-14T16:44:47.892Z,100413.44
2022-11-14T16:47:19.712Z,100410.94
2022-11-14T16:49:48.902Z,100419.06
2022-11-14T16:52:17.363Z,100416.31
2022-11-14T16:54:46.701Z,100408.50
2022-11-14T16:57:14.665Z,100401.16
2022-11-14T16:59:44.197Z,100397.72
2022-11-14T17:02:15.894Z,100381.69
2022-11-14T17:04:46.269Z,100369.63
2022-11-14T17:07:17.648Z,100360.13
2022-11-14T17:09:48.272Z,100352.28
2022-11-14T17:12:16.444Z,100345.06
2022-11-14T17:14:45.896Z,100331.81
2022-11-14T17:17:15.447Z,100319.75
2022-11-14T17:19:46.306Z,100326.69
2022-11-14T17:22:14.619Z,100315.44
2022-11-14T17:24:44.413Z,100306.31
2022-11-14T17:27:19.206Z,100315.69
2022-11-14T17:29:55.342Z,100319.63
2022-11-14T17:32:26.529Z,100334.22
2022-11-14T17:35:01.509Z,100335.09
2022-11-14T17:37:30.155Z,100336.63
2022-11-14T17:40:03.243Z,100353.97
2022-11-14T17:42:40.013Z,100431.84
2022-11-14T17:45:19.281Z,100480.63
2022-11-14T17:47:51.514Z,100547.47
2022-11-14T17:50:21.993Z,100535.13
2022-11-14T17:52:52.960Z,100527.25
2022-11-14T17:55:20.814Z,100549.75
2022-11-14T17:57:54.312Z,100558.97
2022-11-14T18:00:32.657Z,100566.72
2022-11-14T18:03:00.538Z,100572.63
2022-11-14T18:05:30.213Z,100581.41
2022-11-14T18:08:04.396Z,100584.91
2022-11-14T18:10:32.687Z,100574.50
2022-11-14T18:13:29.588Z,100587.50
2022-11-14T18:16:06.663Z,100580.50
2022-11-14T18:18:37.826Z,100572.72
2022-11-14T18:21:15.638Z,100582.38
2022-11-14T18:23:45.805Z,100582.41
2022-11-14T18:26:21.054Z,100577.97
2022-11-14T18:28:49.236Z,100582.41
2022-11-14T18:31:21.678Z,100565.78
2022-11-14T18:33:56.026Z,100569.34
2022-11-14T18:36:24.956Z,100557.09
2022-11-14T18:38:54.849Z,100561.66
2022-11-14T18:41:26.853Z,100560.75
2022-11-14T18:43:56.527Z,100558.97
2022-11-14T18:46:34.401Z,100557.25
2022-11-14T18:49:06.901Z,100556.47
2022-11-14T18:51:42.232Z,100555.75
2022-11-14T18:54:13.149Z,100563.50
2022-11-14T18:56:49.343Z,100563.50
2022-11-14T18:59:20.886Z,100544.34
2022-11-14T19:01:55.073Z,100542.47
2022-11-14T19:04:31.051Z,100541.47
2022-11-14T19:06:58.958Z,100538.81
2022-11-14T19:09:32.880Z,100537.97
2022-11-14T19:12:20.787Z,100522.13
2022-11-14T19:14:56.444Z,100530.16
2022-11-14T19:20:34.676Z,100503.34
2022-11-14T19:23:08.117Z,100524.03
2022-11-14T19:25:43.868Z,100504.94
2022-11-14T19:28:14.334Z,100514.44
2022-11-14T19:31:11.150Z,100511.75
2022-11-14T19:33:59.491Z,100483.47
2022-11-14T19:37:04.253Z,100514.31
2022-11-14T19:39:35.578Z,100511.91
2022-11-14T19:42:06.702Z,100518.75
2022-11-14T19:45:03.597Z,100524.13
2022-11-14T19:51:56.714Z,100511.66
2022-11-14T19:54:27.998Z,100502.00
2022-11-14T19:57:05.882Z,100509.81
2022-11-14T19:59:34.029Z,100515.59
2022-11-14T20:02:02.160Z,100520.91
2022-11-14T20:04:48.171Z,100513.97
2022-11-14T20:07:22.433Z,100510.31
2022-11-14T20:09:52.896Z,100498.00
2022-11-14T20:12:31.239Z,100496.19
2022-11-14T20:15:06.633Z,100489.25
2022-11-14T20:17:44.276Z,100466.06
2022-11-14T20:20:17.585Z,100466.63
2022-11-14T20:22:51.835Z,100459.00
2022-11-14T20:25:28.729Z,100474.38
2022-11-14T20:28:09.548Z,100443.19
2022-11-14T20:30:50.654Z,100442.09
2022-11-14T20:33:21.983Z,100456.66
2022-11-14T20:35:53.317Z,100454.81
2022-11-14T20:38:24.035Z,100460.91
2022-11-14T20:40:59.346Z,100445.06
2022-11-14T20:43:56.961Z,100441.44
2022-11-14T20:46:25.737Z,100425.09
2022-11-14T20:49:20.428Z,100432.00
2022-11-14T20:51:56.088Z,100411.13
2022-11-14T20:54:39.351Z,100411.00
2022-11-14T20:57:17.716Z,100422.91
2022-11-14T20:59:46.664Z,100402.50
2022-11-14T21:02:53.897Z,100423.00
2022-11-14T21:05:28.143Z,100409.16
2022-11-14T21:07:59.211Z,100416.00
2022-11-14T21:10:48.949Z,100402.97
2022-11-14T21:13:36.329Z,100416.91
2022-11-14T21:16:16.268Z,100415.91
2022-11-14T21:18:50.664Z,100417.72
2022-11-14T21:21:23.841Z,100406.38
2022-11-14T21:23:54.322Z,100408.91
2022-11-14T21:26:35.713Z,100377.66
2022-11-14T21:29:07.187Z,100368.06
2022-11-14T21:31:40.014Z,100401.69
2022-11-14T21:34:12.330Z,100386.72
2022-11-14T21:36:55.985Z,100385.00
2022-11-14T21:39:33.037Z,100374.44
2022-11-14T21:42:22.148Z,100369.56
2022-11-14T21:44:54.423Z,100355.50
2022-11-14T21:47:34.763Z,100381.44
2022-11-14T21:50:03.352Z,100375.31
2022-11-14T21:52:33.156Z,100369.94
2022-11-14T21:55:01.996Z,100369.94
2022-11-14T21:57:31.540Z,100364.56
2022-11-14T21:59:59.414Z,100366.38
2022-11-14T22:02:45.303Z,100366.50
2022-11-14T22:05:13.323Z,100360.34
2022-11-14T22:07:41.984Z,100358.44
2022-11-14T22:10:10.646Z,100353.03
2022-11-14T22:12:41.516Z,100357.47
2022-11-14T22:15:11.431Z,100352.19
2022-11-14T22:17:40.714Z,100360.81
2022-11-14T22:20:10.938Z,100357.34
2022-11-14T22:22:38.872Z,100356.34
2022-11-14T22:25:21.977Z,100358.16
2022-11-14T22:28:00.867Z,100356.28
2022-11-14T22:30:40.585Z,100356.34
2022-11-14T22:33:16.507Z,100349.41
2022-11-14T22:36:18.844Z,100358.06
2022-11-14T22:38:47.324Z,100340.53
2022-11-14T22:41:18.064Z,100337.19
2022-11-14T22:43:48.498Z,100335.28
2022-11-14T22:46:22.424Z,100329.06
2022-11-14T22:48:51.163Z,100325.44
2022-11-14T22:51:21.056Z,100324.59
2022-11-14T22:53:50.197Z,100324.28
2022-11-14T22:56:20.648Z,100324.44
2022-11-14T22:58:50.128Z,100322.41
2022-11-14T23:01:21.785Z,100313.91
2022-11-14T23:03:54.978Z,100319.97
2022-11-14T23:06:25.277Z,100315.69
2022-11-14T23:08:54.530Z,100321.81
2022-11-14T23:11:25.585Z,100307.16
2022-11-14T23:13:56.888Z,100306.34
2022-11-14T23:19:12.899Z,100301.78
2022-11-14T23:21:40.974Z,100300.97
2022-11-14T23:24:14.889Z,100298.38
2022-11-14T23:26:42.901Z,100301.97
2022-11-14T23:29:16.826Z,100299.44
2022-11-14T23:31:44.632Z,100297.63
2022-11-14T23:34:12.682Z,100283.72
2022-11-14T23:36:40.838Z,100284.06
2022-11-14T23:39:08.612Z,100283.81
2022-11-14T23:41:36.563Z,100285.56
2022-11-14T23:44:04.561Z,100285.09
2022-11-14T23:46:33.892Z,100295.91
2022-11-14T23:49:02.227Z,100298.44
2022-11-14T23:51:30.452Z,100357.41
2022-11-14T23:54:00.567Z,100670.19
2022-11-14T23:56:28.816Z,100752.41
2022-11-14T23:58:56.743Z,100799.72
